Time;durP1;ratioP1;P1;durP2;ratioP2;P2;SDS_P1;SDS_P2;PMS_P1;PMS_P2;Temp;Humidity;BMP_temperature;BMP_pressure;BME280_temperature;BME280_humidity;BME280_pressure;Samples;Min_cycle;Max_cycle;Signal;HPM_P1;HPM_P2
2022/04/19 00:00:29;;;;;;;1.95;1.20;;;102.50;2227.20;;;;;;5031246;28;20040;-56
2022/04/19 00:02:55;;;;;;;2.78;2.15;;;102.50;2227.20;;;;;;5031398;28;20474;-56
2022/04/19 00:05:21;;;;;;;2.13;1.75;;;102.40;2227.20;;;;;;5031161;28;20044;-56
2022/04/19 00:07:47;;;;;;;1.48;1.05;;;102.70;2227.20;;;;;;5031752;28;20033;-55
2022/04/19 00:10:12;;;;;;;1.92;1.05;;;102.80;2227.20;;;;;;5031712;28;20116;-53
2022/04/19 00:12:38;;;;;;;4.13;1.63;;;102.90;2227.20;;;;;;5030008;28;20125;-52
2022/04/19 00:15:05;;;;;;;2.10;1.42;;;102.80;2227.20;;;;;;5031852;28;20065;-58
2022/04/19 00:17:32;;;;;;;0.98;0.85;;;102.50;2227.20;;;;;;5030775;28;20532;-56
2022/04/19 00:19:57;;;;;;;4.65;2.65;;;77.70;2227.20;;;;;;5031409;28;20581;-52
2022/04/19 00:22:23;;;;;;;9.45;1.52;;;77.60;2227.20;;;;;;5031542;28;20037;-52
2022/04/19 00:24:49;;;;;;;0.50;0.47;;;77.70;2227.20;;;;;;5031386;28;20029;-57
2022/04/19 00:27:15;;;;;;;1.67;0.93;;;77.70;2227.20;;;;;;5031532;28;20026;-55
2022/04/19 00:29:41;;;;;;;1.00;0.70;;;77.70;2227.20;;;;;;5031227;28;20397;-54
2022/04/19 00:32:11;;;;;;;1.27;1.17;;;77.70;2227.20;;;;;;5031469;28;20368;-55
2022/04/19 00:34:38;;;;;;;3.53;1.92;;;77.70;2227.20;;;;;;5031007;28;20061;-55
2022/04/19 00:37:05;;;;;;;0.95;0.88;;;77.70;2227.20;;;;;;5031138;28;20045;-53
2022/04/19 00:39:31;;;;;;;1.83;1.15;;;77.70;2227.20;;;;;;5030960;28;20025;-54
2022/04/19 00:41:56;;;;;;;1.73;0.75;;;77.60;2227.20;;;;;;5031024;28;20091;-49
2022/04/19 00:44:25;;;;;;;0.70;0.70;;;77.70;2227.20;;;;;;5030784;28;20025;-55
2022/04/19 00:46:51;;;;;;;1.13;0.77;;;77.60;2227.20;;;;;;5030730;28;20116;-53
2022/04/19 00:49:17;;;;;;;0.90;0.70;;;77.60;2227.20;;;;;;5031153;28;20164;-50
2022/04/19 00:51:46;;;;;;;2.67;1.45;;;77.50;2227.20;;;;;;5031000;28;20037;-52
2022/04/19 00:54:14;;;;;;;2.92;2.00;;;77.50;2227.20;;;;;;5030597;28;20017;-54
2022/04/19 00:56:40;;;;;;;1.95;1.27;;;77.30;2227.20;;;;;;5030630;28;20037;-53
2022/04/19 00:59:10;;;;;;;5.78;1.30;;;77.10;2227.20;;;;;;5030875;28;20040;-51
2022/04/19 01:01:37;;;;;;;2.17;1.90;;;77.10;2227.20;;;;;;5030946;28;20053;-54
2022/04/19 01:04:03;;;;;;;3.58;1.90;;;76.90;2227.20;;;;;;5030612;28;20018;-55
2022/04/19 01:06:29;;;;;;;2.08;1.10;;;77.20;2227.20;;;;;;5030510;28;20030;-52
2022/04/19 01:08:55;;;;;;;3.03;1.35;;;77.30;2227.20;;;;;;5030560;28;20491;-55
2022/04/19 01:14:05;;;;;;;1.85;1.27;;;77.70;2227.20;;;;;;5030437;28;20028;-54
2022/04/19 01:16:31;;;;;;;3.58;1.85;;;102.40;2227.20;;;;;;5030266;28;20124;-52
2022/04/19 01:18:57;;;;;;;3.08;1.83;;;102.50;2227.20;;;;;;5030527;28;20153;-54
2022/04/19 01:21:26;;;;;;;2.83;1.70;;;102.50;2227.20;;;;;;5030367;28;20079;-52
2022/04/19 01:23:52;;;;;;;2.00;1.70;;;102.50;2227.20;;;;;;5030039;28;20108;-55
2022/04/19 01:26:18;;;;;;;3.30;1.80;;;102.60;2227.20;;;;;;5030463;28;20037;-52
2022/04/19 01:28:45;;;;;;;3.75;1.77;;;102.60;2227.20;;;;;;5029055;28;20392;-53
2022/04/19 01:31:11;;;;;;;1.33;1.08;;;102.60;2227.20;;;;;;5030110;28;20422;-50
2022/04/19 01:33:37;;;;;;;2.08;1.20;;;102.70;2227.20;;;;;;5030113;28;20053;-55
2022/04/19 01:36:03;;;;;;;4.03;1.30;;;102.70;2227.20;;;;;;5029891;28;20397;-55
2022/04/19 01:38:29;;;;;;;2.42;0.85;;;102.50;2227.20;;;;;;5030178;28;20040;-55
2022/04/19 01:40:54;;;;;;;2.70;1.55;;;77.70;2227.20;;;;;;5029938;28;20040;-53
2022/04/19 01:43:20;;;;;;;2.70;1.75;;;77.40;2227.20;;;;;;5029779;28;20030;-52
2022/04/19 01:45:46;;;;;;;2.83;1.25;;;77.40;2227.20;;;;;;5030082;28;20033;-51
2022/04/19 01:48:11;;;;;;;1.77;1.38;;;77.20;2227.20;;;;;;5029904;28;20400;-53
2022/04/19 01:50:38;;;;;;;1.75;1.17;;;77.10;2227.20;;;;;;5029948;28;20033;-55
2022/04/19 01:53:04;;;;;;;1.92;1.30;;;77.00;2227.20;;;;;;5029686;28;20507;-56
2022/04/19 01:55:30;;;;;;;1.65;1.35;;;77.00;2227.20;;;;;;5029494;28;20061;-55
2022/04/19 01:57:58;;;;;;;1.73;1.42;;;76.90;2227.20;;;;;;5029721;28;20037;-55
2022/04/19 02:00:30;;;;;;;1.90;1.63;;;76.80;2227.20;;;;;;5029718;28;20037;-53
2022/04/19 02:02:57;;;;;;;1.90;1.45;;;76.80;2227.20;;;;;;5029529;28;20476;-55
2022/04/19 02:05:23;;;;;;;4.93;1.67;;;52.00;2227.20;;;;;;5029358;28;20080;-50
2022/04/19 02:07:49;;;;;;;4.13;2.13;;;51.80;2227.20;;;;;;5029403;28;20049;-53
2022/04/19 02:10:16;;;;;;;2.35;1.27;;;51.80;2227.20;;;;;;5029546;28;20026;-53
2022/04/19 02:12:42;;;;;;;2.40;1.65;;;51.80;2227.20;;;;;;5029365;28;20041;-54
2022/04/19 02:15:09;;;;;;;2.83;1.38;;;51.80;2227.20;;;;;;5027944;28;20072;-53
2022/04/19 02:17:42;;;;;;;2.90;2.00;;;51.80;2227.20;;;;;;5029555;28;20037;-51
2022/04/19 02:20:08;;;;;;;2.85;1.33;;;52.10;2227.20;;;;;;5029512;28;20044;-52
2022/04/19 02:22:34;;;;;;;3.05;2.40;;;76.90;2227.20;;;;;;5029269;28;20033;-55
2022/04/19 02:25:00;;;;;;;2.83;1.75;;;77.00;2227.20;;;;;;5029482;28;20018;-55
2022/04/19 02:27:28;;;;;;;1.17;1.08;;;77.10;2227.20;;;;;;5029392;28;20052;-53
2022/04/19 02:29:57;;;;;;;2.03;0.85;;;76.80;2227.20;;;;;;5029352;28;20384;-53
2022/04/19 02:32:23;;;;;;;2.33;1.60;;;51.90;2227.20;;;;;;5028979;28;20017;-53
2022/04/19 02:34:50;;;;;;;2.95;1.90;;;52.00;2227.20;;;;;;5028956;28;20128;-53
2022/04/19 02:37:19;;;;;;;1.92;1.15;;;52.00;2227.20;;;;;;5029336;28;20044;-55
2022/04/19 02:39:49;;;;;;;2.78;1.60;;;51.80;2227.20;;;;;;5031331;28;20028;-54
2022/04/19 02:42:16;;;;;;;1.13;0.88;;;51.70;2227.20;;;;;;5035749;28;20531;-51
2022/04/19 02:44:41;;;;;;;1.85;1.23;;;51.60;2227.20;;;;;;5035645;28;20025;-56
2022/04/19 02:47:07;;;;;;;1.27;1.00;;;51.50;2227.20;;;;;;5035772;28;20028;-54
2022/04/19 02:49:34;;;;;;;3.30;1.30;;;51.50;2227.20;;;;;;5035704;28;20028;-53
2022/04/19 02:52:00;;;;;;;1.65;1.15;;;51.70;2227.20;;;;;;5035638;28;20026;-54
2022/04/19 02:54:25;;;;;;;2.70;1.55;;;51.50;2227.20;;;;;;5035707;28;20476;-52
2022/04/19 02:56:51;;;;;;;1.33;1.23;;;51.40;2227.20;;;;;;5035578;28;20045;-51
2022/04/19 02:59:17;;;;;;;2.22;1.25;;;51.30;2227.20;;;;;;5035651;28;20087;-52
2022/04/19 03:01:44;;;;;;;3.53;1.70;;;51.30;2227.20;;;;;;5035580;28;20055;-50
2022/04/19 03:04:09;;;;;;;2.20;1.30;;;51.30;2227.20;;;;;;5035315;28;20038;-57
2022/04/19 03:06:35;;;;;;;1.27;0.93;;;51.30;2227.20;;;;;;5035587;28;20080;-50
2022/04/19 03:09:01;;;;;;;4.82;1.40;;;51.20;2227.20;;;;;;5035388;28;20053;-54
2022/04/19 03:11:28;;;;;;;2.78;1.38;;;51.20;2227.20;;;;;;5035288;28;20057;-51
2022/04/19 03:13:54;;;;;;;1.30;0.95;;;51.30;2227.20;;;;;;5035465;28;20461;-51
2022/04/19 03:16:20;;;;;;;1.85;0.77;;;51.20;2227.20;;;;;;5035215;28;20077;-52
2022/04/19 03:18:46;;;;;;;2.13;1.60;;;51.30;2227.20;;;;;;5035729;28;20055;-55
2022/04/19 03:21:13;;;;;;;3.05;1.20;;;51.50;2227.20;;;;;;5035385;28;20384;-53
2022/04/19 03:29:10;;;;;;;1.20;0.68;;;52.00;2227.20;;;;;;5035403;28;20064;-53
2022/04/19 03:31:37;;;;;;;2.50;1.85;;;52.10;2227.20;;;;;;5035285;28;20433;-53
2022/04/19 03:34:04;;;;;;;1.13;1.02;;;52.10;2227.20;;;;;;5035029;28;20499;-50
2022/04/19 03:36:30;;;;;;;2.92;1.60;;;52.00;2227.20;;;;;;5035044;28;20048;-52
2022/04/19 03:38:56;;;;;;;2.78;1.77;;;51.80;2227.20;;;;;;5035398;28;20022;-52
2022/04/19 03:41:22;;;;;;;1.48;1.38;;;51.60;2227.20;;;;;;5035132;28;20036;-53
2022/04/19 03:43:48;;;;;;;2.00;1.35;;;51.50;2227.20;;;;;;5035041;28;20380;-51
2022/04/19 03:46:14;;;;;;;3.30;1.92;;;51.30;2227.20;;;;;;5035345;28;20411;-52
2022/04/19 03:48:39;;;;;;;1.98;0.93;;;51.20;2227.20;;;;;;5035067;28;20026;-51
2022/04/19 03:51:05;;;;;;;6.10;2.40;;;51.20;2227.20;;;;;;5033724;28;20022;-56
2022/04/19 03:53:31;;;;;;;3.65;1.67;;;51.30;2227.20;;;;;;5031804;28;20079;-55
2022/04/19 03:56:00;;;;;;;2.70;1.40;;;51.30;2227.20;;;;;;5031814;28;20036;-52
2022/04/19 03:58:27;;;;;;;4.38;2.33;;;51.30;2227.20;;;;;;5031889;28;20025;-55
2022/04/19 04:00:54;;;;;;;1.83;1.42;;;51.30;2227.20;;;;;;5031860;28;20025;-54
2022/04/19 04:03:20;;;;;;;1.45;1.17;;;51.50;2227.20;;;;;;5031457;28;20060;-52
2022/04/19 04:05:46;;;;;;;10.85;7.78;;;51.70;2227.20;;;;;;5032003;28;20033;-57
2022/04/19 04:08:11;;;;;;;18.13;9.30;;;52.00;2227.20;;;;;;5031515;28;20112;-55
2022/04/19 04:10:37;;;;;;;4.47;2.40;;;76.80;2227.20;;;;;;5031616;28;20025;-54
2022/04/19 04:13:04;;;;;;;4.40;2.60;;;77.00;2227.20;;;;;;5031735;28;20021;-53
2022/04/19 04:15:30;;;;;;;5.82;3.70;;;77.20;2227.20;;;;;;5031453;28;20107;-53
2022/04/19 04:17:56;;;;;;;1.80;1.13;;;77.30;2227.20;;;;;;5031576;28;20461;-52
2022/04/19 04:20:21;;;;;;;2.95;1.80;;;77.30;2227.20;;;;;;5031423;28;20044;-53
2022/04/19 04:22:47;;;;;;;2.05;1.25;;;77.30;2227.20;;;;;;5031602;28;20538;-55
2022/04/19 04:25:13;;;;;;;2.38;1.52;;;77.40;2227.20;;;;;;5031456;28;20064;-52
2022/04/19 04:27:39;;;;;;;2.78;1.98;;;77.60;2227.20;;;;;;5031290;28;20034;-52
2022/04/19 04:30:06;;;;;;;3.85;2.72;;;77.70;2227.20;;;;;;5031436;28;20029;-51
2022/04/19 04:32:32;;;;;;;6.03;3.67;;;102.40;2227.20;;;;;;5030961;28;20116;-53
2022/04/19 04:34:58;;;;;;;3.95;2.88;;;128.70;2252.80;;;;;;5031075;28;20050;-55
2022/04/19 04:37:25;;;;;;;6.30;3.97;;;204.80;2227.20;;;;;;5031294;28;20049;-53
2022/04/19 04:39:52;;;;;;;9.55;5.95;;;231.20;1920.00;;;;;;5031160;28;20021;-53
2022/04/19 04:42:17;;;;;;;8.57;5.13;;;256.40;1792.00;;;;;;5031171;28;20033;-53
2022/04/19 04:44:43;;;;;;;5.32;2.97;;;205.20;1996.80;;;;;;5031022;28;20021;-54
2022/04/19 04:49:57;;;;;;;2.40;1.77;;;179.20;2252.80;;;;;;5030736;28;20036;-54
2022/04/19 04:52:23;;;;;;;4.30;2.45;;;256.00;1920.00;;;;;;5030989;28;20029;-55
2022/04/19 04:54:49;;;;;;;7.88;2.70;;;307.20;1715.20;;;;;;5030882;28;20025;-52
2022/04/19 04:57:14;;;;;;;3.22;2.25;;;333.60;1561.60;;;;;;5030930;28;20049;-54
2022/04/19 04:59:40;;;;;;;10.02;6.35;;;359.00;1459.20;;;;;;5032794;28;20034;-58
2022/04/19 05:02:06;;;;;;;10.15;5.45;;;384.60;1408.00;;;;;;5030171;28;20037;-52
2022/04/19 05:04:33;;;;;;;8.68;6.00;;;384.90;1356.80;;;;;;5029659;28;20808;-56
2022/04/19 05:06:59;;;;;;;9.27;6.65;;;384.10;1408.00;;;;;;5029917;28;20045;-60
2022/04/19 05:09:25;;;;;;;11.70;5.47;;;409.90;1382.40;;;;;;5030183;28;20097;-53
2022/04/19 05:11:52;;;;;;;8.48;4.65;;;410.00;1356.80;;;;;;5031414;28;20036;-53
2022/04/19 05:14:19;;;;;;;8.43;4.65;;;435.60;1280.00;;;;;;5031205;28;20061;-56
2022/04/19 05:16:45;;;;;;;6.70;4.82;;;461.20;1254.40;;;;;;5031260;28;20077;-55
2022/04/19 05:19:11;;;;;;;6.32;4.55;;;486.80;1177.60;;;;;;5031097;28;20524;-55
2022/04/19 05:21:40;;;;;;;4.90;2.90;;;487.10;1152.00;;;;;;5031536;28;20036;-60
2022/04/19 05:24:07;;;;;;;9.40;4.05;;;512.80;1100.80;;;;;;5031263;28;20022;-55
2022/04/19 05:26:33;;;;;;;4.30;3.20;;;512.00;1126.40;;;;;;5031079;28;20025;-56
2022/04/19 05:28:59;;;;;;;12.25;5.72;;;538.00;1075.20;;;;;;5030891;28;20036;-56
2022/04/19 05:31:24;;;;;;;7.45;5.22;;;512.80;1100.80;;;;;;5031065;28;20033;-55
2022/04/19 05:33:50;;;;;;;10.00;5.72;;;487.20;1152.00;;;;;;5030565;28;20113;-55
2022/04/19 05:36:16;;;;;;;12.48;6.30;;;537.80;1100.80;;;;;;5031065;28;20045;-56
2022/04/19 05:38:43;;;;;;;11.73;6.88;;;537.70;1100.80;;;;;;5030822;28;20028;-55
2022/04/19 05:41:10;;;;;;;6.60;5.13;;;538.20;1075.20;;;;;;5030875;28;20491;-56
2022/04/19 05:43:36;;;;;;;8.30;5.88;;;563.90;1049.60;;;;;;5030810;28;20029;-57
2022/04/19 05:46:02;;;;;;;7.65;5.25;;;589.70;998.40;;;;;;5030686;28;20079;-56
2022/04/19 05:48:28;;;;;;;7.10;4.68;;;614.50;947.20;;;;;;5031087;28;20075;-57
2022/04/19 05:50:53;;;;;;;5.30;3.47;;;589.30;998.40;;;;;;5030986;28;20068;-56
2022/04/19 05:53:20;;;;;;;3.97;3.10;;;589.40;998.40;;;;;;5030724;28;20478;-55
2022/04/19 05:55:46;;;;;;;6.07;4.43;;;640.40;896.00;;;;;;5030769;28;20038;-58
2022/04/19 05:58:11;;;;;;;5.93;4.10;;;665.70;896.00;;;;;;5030509;28;20071;-56
2022/04/19 06:00:37;;;;;;;6.40;3.63;;;640.20;921.60;;;;;;5030657;28;20084;-57
2022/04/19 06:05:47;;;;;;;5.07;4.00;;;615.00;947.20;;;;;;5030945;28;20063;-56
2022/04/19 06:08:14;;;;;;;6.75;4.80;;;614.80;947.20;;;;;;5030563;28;20017;-57
2022/04/19 06:10:40;;;;;;;6.93;4.60;;;640.00;921.60;;;;;;5030462;28;20033;-58
2022/04/19 06:13:07;;;;;;;5.72;5.13;;;666.20;870.40;;;;;;5029185;28;20026;-57
2022/04/19 06:15:33;;;;;;;6.43;5.20;;;666.30;896.00;;;;;;5029818;28;20480;-58
2022/04/19 06:17:59;;;;;;;4.75;3.60;;;640.50;896.00;;;;;;5030142;28;20036;-58
2022/04/19 06:20:25;;;;;;;9.50;5.47;;;614.80;947.20;;;;;;5030312;28;20057;-57
2022/04/19 06:22:51;;;;;;;6.15;5.53;;;614.60;947.20;;;;;;5030337;28;20403;-57
2022/04/19 06:25:17;;;;;;;5.45;4.45;;;589.50;972.80;;;;;;5030470;28;20025;-58
2022/04/19 06:27:42;;;;;;;8.13;5.93;;;588.90;998.40;;;;;;5030208;28;20468;-58
2022/04/19 06:30:09;;;;;;;11.85;6.78;;;614.40;972.80;;;;;;5030148;28;20025;-59
2022/04/19 06:32:36;;;;;;;9.38;6.78;;;640.00;947.20;;;;;;5029882;28;20036;-59
2022/04/19 06:35:02;;;;;;;9.60;6.97;;;640.60;896.00;;;;;;5030035;28;20053;-57
2022/04/19 06:37:29;;;;;;;8.80;7.05;;;640.00;921.60;;;;;;5029909;28;20037;-57
2022/04/19 06:40:00;;;;;;;9.25;8.35;;;666.20;870.40;;;;;;5029006;28;20041;-57
2022/04/19 06:42:26;;;;;;;9.90;8.23;;;717.00;844.80;;;;;;5030146;28;20495;-57
2022/04/19 06:44:51;;;;;;;10.45;7.90;;;743.10;793.60;;;;;;5029660;28;20033;-56
2022/04/19 06:47:17;;;;;;;9.63;8.75;;;742.80;819.20;;;;;;5030153;28;20095;-59
2022/04/19 06:49:43;;;;;;;8.63;7.55;;;793.70;793.60;;;;;;5030206;28;20104;-60
2022/04/19 06:52:09;;;;;;;9.70;7.68;;;819.60;742.40;;;;;;5030087;28;20036;-62
2022/04/19 06:54:34;;;;;;;7.32;6.50;;;819.70;742.40;;;;;;5030040;28;20030;-59
2022/04/19 06:57:00;;;;;;;6.65;5.43;;;793.80;768.00;;;;;;5029686;28;20385;-61
2022/04/19 06:59:26;;;;;;;6.95;5.97;;;819.30;742.40;;;;;;5029846;28;20071;-59
2022/04/19 07:01:52;;;;;;;6.25;5.68;;;845.10;716.80;;;;;;5029738;28;20507;-61
2022/04/19 07:04:18;;;;;;;5.03;4.63;;;820.10;691.20;;;;;;5029628;28;20025;-63
2022/04/19 07:06:43;;;;;;;56.80;30.83;;;820.10;691.20;;;;;;5030077;28;20036;-60
2022/04/19 07:09:09;;;;;;;39.88;26.10;;;870.50;665.60;;;;;;5029670;28;20443;-60
2022/04/19 07:11:37;;;;;;;6.85;6.25;;;819.70;691.20;;;;;;5029940;28;20104;-59
2022/04/19 07:14:04;;;;;;;7.72;6.93;;;845.40;691.20;;;;;;5029724;28;20025;-60
2022/04/19 07:16:29;;;;;;;6.05;5.55;;;845.50;691.20;;;;;;5029390;28;20037;-60
2022/04/19 07:18:55;;;;;;;5.78;5.28;;;845.60;691.20;;;;;;5029811;28;20353;-61
2022/04/19 07:26:50;;;;;;;6.15;5.72;;;794.20;691.20;;;;;;5030304;28;20483;-58
2022/04/19 07:29:18;;;;;;;5.57;5.18;;;820.10;665.60;;;;;;5033776;28;20030;-64
2022/04/19 07:31:48;;;;;;;4.88;4.38;;;717.70;742.40;;;;;;5033450;28;20025;-59
2022/04/19 07:34:15;;;;;;;5.43;4.93;;;768.20;716.80;;;;;;5033085;28;20042;-62
2022/04/19 07:36:41;;;;;;;5.78;5.38;;;768.90;691.20;;;;;;5033199;28;20050;-59
2022/04/19 07:39:11;;;;;;;6.00;5.50;;;717.50;793.60;;;;;;5033303;28;20124;-62
2022/04/19 07:41:37;;;;;;;4.57;4.18;;;794.40;691.20;;;;;;5033290;28;20021;-59
2022/04/19 07:44:08;;;;;;;5.20;4.80;;;820.00;665.60;;;;;;5033188;28;20048;-60
2022/04/19 07:46:35;;;;;;;5.55;5.05;;;870.50;640.00;;;;;;5033172;28;20385;-62
2022/04/19 07:49:02;;;;;;;5.55;5.15;;;870.90;665.60;;;;;;5033231;28;20466;-59
2022/04/19 07:51:28;;;;;;;4.95;4.55;;;896.10;614.40;;;;;;5033047;28;20104;-59
2022/04/19 07:53:55;;;;;;;6.32;5.38;;;896.20;614.40;;;;;;5032970;28;20116;-58
2022/04/19 07:56:21;;;;;;;5.40;5.00;;;871.30;640.00;;;;;;5032861;28;20069;-61
2022/04/19 07:58:47;;;;;;;5.18;4.75;;;896.20;614.40;;;;;;5033092;28;20417;-59
2022/04/19 08:01:18;;;;;;;5.72;5.22;;;896.20;614.40;;;;;;5033074;28;20064;-60
2022/04/19 08:03:44;;;;;;;4.70;4.38;;;870.90;640.00;;;;;;5032734;28;20025;-60
2022/04/19 08:06:09;;;;;;;5.03;4.63;;;896.10;614.40;;;;;;5032759;28;20828;-61
2022/04/19 08:08:36;;;;;;;5.38;4.97;;;845.50;665.60;;;;;;5032709;28;20034;-58
2022/04/19 08:11:03;;;;;;;6.05;5.65;;;871.10;640.00;;;;;;5032469;28;20056;-60
2022/04/19 08:13:29;;;;;;;4.85;4.45;;;896.50;588.80;;;;;;5032427;28;20025;-60
2022/04/19 08:15:55;;;;;;;4.88;4.47;;;896.10;588.80;;;;;;5032670;28;20033;-61
2022/04/19 08:18:21;;;;;;;4.53;4.22;;;870.40;640.00;;;;;;5032651;28;20469;-62
2022/04/19 08:20:47;;;;;;;4.88;4.57;;;896.00;588.80;;;;;;5032570;28;20021;-58
2022/04/19 08:23:13;;;;;;;4.63;4.32;;;819.30;665.60;;;;;;5032346;28;20076;-58
2022/04/19 08:25:40;;;;;;;4.82;4.43;;;844.80;665.60;;;;;;5032125;28;20473;-60
2022/04/19 08:28:07;;;;;;;4.63;4.25;;;793.80;691.20;;;;;;5032497;28;20080;-63
2022/04/19 08:30:33;;;;;;;5.30;4.90;;;742.40;742.40;;;;;;5032249;28;20021;-59
2022/04/19 08:32:59;;;;;;;6.50;5.93;;;742.50;716.80;;;;;;5032092;28;20057;-59
2022/04/19 08:35:25;;;;;;;5.22;4.72;;;743.00;716.80;;;;;;5032021;28;20092;-61
2022/04/19 08:37:52;;;;;;;4.38;3.97;;;768.10;691.20;;;;;;5031595;28;20495;-58
2022/04/19 08:40:18;;;;;;;4.20;3.83;;;742.70;742.40;;;;;;5032192;28;20036;-57
2022/04/19 08:42:45;;;;;;;7.75;5.97;;;665.90;742.40;;;;;;5032128;28;20026;-58
2022/04/19 08:45:13;;;;;;;4.15;3.10;;;614.40;793.60;;;;;;5032034;28;20033;-59
2022/04/19 08:47:42;;;;;;;2.33;1.83;;;589.30;819.20;;;;;;5032106;28;20029;-58
2022/04/19 08:50:10;;;;;;;3.70;2.25;;;563.90;896.00;;;;;;5030600;28;20029;-59
2022/04/19 08:52:36;;;;;;;4.72;2.55;;;538.40;870.40;;;;;;5031890;28;20037;-59
2022/04/19 08:57:48;;;;;;;3.22;2.03;;;512.70;896.00;;;;;;5031853;28;20537;-58
2022/04/19 09:00:15;;;;;;;2.63;1.77;;;512.70;870.40;;;;;;5031849;28;20026;-57
2022/04/19 09:02:41;;;;;;;2.60;1.85;;;512.10;896.00;;;;;;5031505;28;20033;-57
2022/04/19 09:05:16;;;;;;;6.65;3.47;;;486.80;921.60;;;;;;5031760;28;20037;-57
2022/04/19 09:07:43;;;;;;;2.10;1.55;;;512.10;896.00;;;;;;5031477;28;20029;-57
2022/04/19 09:10:15;;;;;;;1.75;1.38;;;512.10;896.00;;;;;;5031328;28;20049;-59
2022/04/19 09:13:00;;;;;;;2.45;1.65;;;512.30;870.40;;;;;;5031389;28;20017;-62
2022/04/19 09:15:34;;;;;;;3.20;2.20;;;487.00;972.80;;;;;;5031268;28;20052;-58
2022/04/19 09:18:00;;;;;;;;;;;486.90;947.20;;;;;;5031630;28;20049;-59
2022/04/19 09:20:26;;;;;;;2.50;1.52;;;461.50;947.20;;;;;;5031347;28;19933;-58
2022/04/19 09:23:08;;;;;;;4.57;2.80;;;461.40;947.20;;;;;;5031015;28;20045;-60
2022/04/19 09:25:35;;;;;;;2.78;1.90;;;486.40;972.80;;;;;;5031304;28;20036;-58
2022/04/19 09:28:02;;;;;;;2.67;1.98;;;486.90;921.60;;;;;;5031089;28;20026;-55
2022/04/19 09:30:34;;;;;;;1.63;1.33;;;512.00;896.00;;;;;;5030987;28;20022;-56
2022/04/19 09:33:04;;;;;;;1.23;1.05;;;487.00;921.60;;;;;;5030888;28;20596;-56
2022/04/19 09:35:31;;;;;;;2.72;1.50;;;461.70;972.80;;;;;;5030622;28;20064;-57
2022/04/19 09:37:57;;;;;;;2.15;1.33;;;486.80;921.60;;;;;;5030921;28;20029;-57
2022/04/19 09:40:34;;;;;;;1.60;1.35;;;487.00;896.00;;;;;;5031006;28;20018;-57
2022/04/19 09:43:13;;;;;;;1.70;1.08;;;487.00;870.40;;;;;;5030843;28;20033;-57
2022/04/19 09:46:06;;;;;;;1.92;1.33;;;486.40;921.60;;;;;;5030540;28;20033;-54
2022/04/19 09:48:36;;;;;;;1.25;1.15;;;486.40;896.00;;;;;;5028837;28;20507;-55
2022/04/19 09:51:09;;;;;;;3.47;1.75;;;461.20;972.80;;;;;;5029341;28;20496;-54
2022/04/19 09:53:44;;;;;;;2.63;1.67;;;461.20;972.80;;;;;;5030082;28;20033;-56
2022/04/19 09:56:13;;;;;;;1.90;1.50;;;461.00;1024.00;;;;;;5029772;28;20033;-57
2022/04/19 09:58:41;;;;;;;6.38;4.30;;;460.90;998.40;;;;;;5029949;28;20048;-56
2022/04/19 10:08:10;;;;;;;11.65;5.88;;;461.30;947.20;;;;;;5029974;28;20067;-60
2022/04/19 10:09:24;;;;;;;2.53;1.88;;;486.40;972.80;;;;;;5028630;28;20037;-54
2022/04/19 10:11:51;;;;;;;3.05;1.60;;;461.00;972.80;;;;;;5029918;28;20032;-55
2022/04/19 10:14:18;;;;;;;3.03;1.67;;;461.50;972.80;;;;;;5030180;28;20464;-59
2022/04/19 10:16:45;;;;;;;2.35;1.25;;;461.40;947.20;;;;;;5030251;28;20533;-57
2022/04/19 10:19:12;;;;;;;1.58;1.25;;;486.50;947.20;;;;;;5030070;28;20025;-56
2022/04/19 10:21:43;;;;;;;1.38;1.08;;;461.30;998.40;;;;;;5029995;28;20048;-56
2022/04/19 10:24:13;;;;;;;1.90;1.30;;;436.00;998.40;;;;;;5030201;28;20044;-56
2022/04/19 10:26:47;;;;;;;1.23;0.98;;;460.80;998.40;;;;;;5030221;28;20026;-56
2022/04/19 10:29:20;;;;;;;2.50;1.55;;;461.30;947.20;;;;;;5030132;28;20026;-56
2022/04/19 10:32:01;;;;;;;2.90;1.30;;;461.40;947.20;;;;;;5030296;28;20388;-57
2022/04/19 10:34:33;;;;;;;2.50;1.50;;;460.90;998.40;;;;;;5029988;28;20037;-56
2022/04/19 10:37:26;;;;;;;2.20;1.42;;;461.10;972.80;;;;;;5030002;28;20037;-57
2022/04/19 10:39:58;;;;;;;1.73;1.17;;;436.10;998.40;;;;;;5028133;28;20038;-57
2022/04/19 10:42:40;;;;;;;3.30;2.03;;;435.90;1024.00;;;;;;5030197;28;20266;-56
2022/04/19 10:45:15;;;;;;;5.05;2.40;;;460.90;998.40;;;;;;5030149;28;20029;-60
2022/04/19 10:47:53;;;;;;;4.03;2.85;;;460.90;947.20;;;;;;5030016;28;20033;-57
2022/04/19 10:50:29;;;;;;;3.85;2.22;;;436.00;921.60;;;;;;5030148;28;20056;-59
2022/04/19 10:53:05;;;;;;;4.00;2.35;;;435.90;947.20;;;;;;5030339;28;20109;-57
2022/04/19 10:55:33;;;;;;;4.40;2.80;;;435.90;972.80;;;;;;5029827;28;20029;-59
2022/04/19 10:58:38;;;;;;;5.85;3.15;;;435.60;998.40;;;;;;5029777;28;20052;-58
2022/04/19 11:00:58;;;;;;;7.72;4.40;;;435.30;972.80;;;;;;5028863;28;20034;-58
2022/04/19 11:03:33;;;;;;;3.30;2.20;;;410.30;998.40;;;;;;5033793;28;20112;-56
2022/04/19 11:06:01;;;;;;;5.53;2.47;;;410.40;972.80;;;;;;5033655;28;20037;-55
2022/04/19 11:08:30;;;;;;;5.22;2.40;;;410.50;998.40;;;;;;5033948;28;20032;-56
2022/04/19 11:10:55;;;;;;;1.50;1.40;;;435.20;998.40;;;;;;5034018;28;20021;-57
2022/04/19 11:13:31;;;;;;;4.95;2.63;;;435.20;972.80;;;;;;5033744;28;20362;-56
2022/04/19 11:16:06;;;;;;;13.75;6.18;;;435.30;972.80;;;;;;5033719;28;20108;-57
2022/04/19 11:18:41;;;;;;;2.33;1.75;;;435.60;972.80;;;;;;5033547;28;20468;-57
2022/04/19 11:21:11;;;;;;;1.95;1.38;;;410.50;972.80;;;;;;5033777;28;20072;-56
2022/04/19 11:23:50;;;;;;;1.83;1.30;;;410.40;998.40;;;;;;5032300;28;20033;-56
2022/04/19 11:26:34;;;;;;;2.47;1.75;;;410.10;998.40;;;;;;5033596;28;20404;-60
2022/04/19 11:29:14;;;;;;;;;;;410.30;998.40;;;;;;5033671;28;20026;-57
2022/04/19 11:31:45;;;;;;;3.53;1.60;;;435.30;998.40;;;;;;5033455;28;19909;-61
2022/04/19 11:34:15;;;;;;;1.67;1.27;;;435.60;1075.20;;;;;;5033221;28;20368;-61
2022/04/19 11:36:42;;;;;;;1.73;1.23;;;435.60;1126.40;;;;;;5033027;28;20472;-58
2022/04/19 11:46:43;;;;;;;1.90;1.30;;;435.80;1152.00;;;;;;5033339;28;20029;-56
2022/04/19 11:47:49;;;;;;;3.15;1.45;;;435.90;972.80;;;;;;5033265;28;20125;-60
2022/04/19 11:50:24;;;;;;;;;;;410.20;998.40;;;;;;5033549;28;20121;-61
2022/04/19 11:52:50;;;;;;;3.03;1.60;;;435.50;1024.00;;;;;;5033014;28;19999;-61
2022/04/19 11:55:15;;;;;;;2.17;1.23;;;410.50;998.40;;;;;;5033202;28;20101;-57
2022/04/19 11:57:41;;;;;;;2.65;1.38;;;409.90;998.40;;;;;;5032763;28;20030;-58
2022/04/19 12:00:07;;;;;;;3.50;1.58;;;410.30;1024.00;;;;;;5032586;28;20037;-62
2022/04/19 12:02:37;;;;;;;2.40;1.77;;;435.40;1049.60;;;;;;5032994;28;20029;-61
2022/04/19 12:05:06;;;;;;;1.83;1.55;;;435.60;1024.00;;;;;;5032521;28;20034;-57
2022/04/19 12:07:32;;;;;;;2.67;1.45;;;435.90;998.40;;;;;;5032693;28;20021;-61
2022/04/19 12:10:01;;;;;;;3.15;1.45;;;436.00;972.80;;;;;;5032873;28;20392;-59
2022/04/19 12:12:27;;;;;;;4.10;2.13;;;435.90;972.80;;;;;;5031793;28;20109;-60
2022/04/19 12:14:53;;;;;;;3.63;2.08;;;435.40;947.20;;;;;;5032668;28;20025;-61
2022/04/19 12:17:21;;;;;;;5.60;2.30;;;435.60;998.40;;;;;;5032686;28;20029;-60
2022/04/19 12:19:47;;;;;;;37.75;16.52;;;435.60;998.40;;;;;;5032649;28;20056;-57
2022/04/19 12:22:23;;;;;;;6.47;3.25;;;435.30;998.40;;;;;;5032437;28;20025;-58
2022/04/19 12:24:58;;;;;;;3.05;2.08;;;435.20;972.80;;;;;;5032380;28;20061;-57
2022/04/19 12:27:29;;;;;;;5.57;3.47;;;410.30;972.80;;;;;;5032235;28;20486;-60
2022/04/19 12:30:08;;;;;;;3.88;2.08;;;435.20;998.40;;;;;;5031199;28;20432;-55
2022/04/19 12:32:52;;;;;;;1.67;1.10;;;410.40;972.80;;;;;;5032435;28;20022;-58
2022/04/19 12:35:22;;;;;;;1.60;1.30;;;435.20;972.80;;;;;;5032214;28;20049;-54
2022/04/19 12:38:08;;;;;;;1.70;1.17;;;435.20;998.40;;;;;;5032058;28;20064;-57
2022/04/19 12:40:34;;;;;;;2.15;1.52;;;435.40;972.80;;;;;;5032169;28;20104;-56
2022/04/19 12:43:00;;;;;;;2.67;1.70;;;410.20;998.40;;;;;;5031986;28;20535;-59
2022/04/19 12:45:35;;;;;;;3.47;2.00;;;410.40;998.40;;;;;;5032184;28;20017;-61
2022/04/19 12:48:02;;;;;;;3.13;1.92;;;410.20;1024.00;;;;;;5031858;28;20473;-57
2022/04/19 12:50:28;;;;;;;3.35;2.67;;;435.50;1024.00;;;;;;5031901;28;20045;-58
2022/04/19 12:52:54;;;;;;;4.20;2.63;;;436.10;998.40;;;;;;5032017;28;20053;-57
2022/04/19 12:55:30;;;;;;;3.28;2.53;;;460.80;1024.00;;;;;;5032091;28;20091;-58
2022/04/19 12:58:09;;;;;;;3.72;2.42;;;461.00;1024.00;;;;;;5031781;28;20083;-57
2022/04/19 13:00:36;;;;;;;2.33;1.85;;;460.80;998.40;;;;;;5031748;28;20115;-57
2022/04/19 13:03:03;;;;;;;2.20;1.40;;;435.60;998.40;;;;;;5031337;28;20383;-58